Time;durP1;ratioP1;P1;durP2;ratioP2;P2;SDS_P1;SDS_P2;PMS_P1;PMS_P2;Temp;Humidity;BMP_temperature;BMP_pressure;BME280_temperature;BME280_humidity;BME280_pressure;Samples;Min_cycle;Max_cycle;Signal;HPM_P1;HPM_P2
2023/06/20 00:00:49;;;;;;;18.50;15.13;;;15.60;84.40;;;;;;4974785;28;20211;-86
2023/06/20 00:03:15;;;;;;;19.83;17.88;;;15.60;84.40;;;;;;4975203;28;20199;-86
2023/06/20 00:05:41;;;;;;;17.00;15.50;;;15.60;84.30;;;;;;4974285;28;20198;-86
2023/06/20 00:08:07;;;;;;;21.67;16.50;;;15.60;84.30;;;;;;4974462;28;20181;-86
2023/06/20 00:10:32;;;;;;;16.83;15.20;;;15.60;84.10;;;;;;4974317;28;20175;-86
2023/06/20 00:12:59;;;;;;;16.65;15.02;;;15.60;83.90;;;;;;4975533;28;20190;-86
2023/06/20 00:15:25;;;;;;;16.67;15.05;;;15.50;83.70;;;;;;4974215;28;20300;-86
2023/06/20 00:18:00;;;;;;;16.98;15.27;;;15.50;83.60;;;;;;4975043;28;20175;-86
2023/06/20 00:20:27;;;;;;;19.73;15.57;;;15.50;83.50;;;;;;4974811;28;20177;-86
2023/06/20 00:22:53;;;;;;;16.83;15.20;;;15.50;83.40;;;;;;4974185;28;20206;-86
2023/06/20 00:25:19;;;;;;;17.58;15.70;;;15.50;83.30;;;;;;4973990;28;20207;-86
2023/06/20 00:27:45;;;;;;;18.70;16.90;;;15.40;83.20;;;;;;4973986;28;20539;-86
2023/06/20 00:30:11;;;;;;;22.33;17.75;;;15.40;83.00;;;;;;4973993;28;20167;-86
2023/06/20 00:32:36;;;;;;;18.58;16.77;;;15.40;82.80;;;;;;4973855;28;20198;-86
2023/06/20 00:35:02;;;;;;;18.08;16.33;;;15.50;82.80;;;;;;4973711;28;20182;-86
2023/06/20 00:37:29;;;;;;;17.95;16.25;;;15.40;82.90;;;;;;4973838;28;20572;-86
2023/06/20 00:39:54;;;;;;;17.58;15.13;;;15.40;82.90;;;;;;4973925;28;20278;-86
2023/06/20 00:42:25;;;;;;;17.95;16.02;;;15.40;82.90;;;;;;4973878;28;20181;-86
2023/06/20 00:44:51;;;;;;;18.02;16.08;;;15.40;82.90;;;;;;4973647;28;20203;-86
2023/06/20 00:47:18;;;;;;;17.20;15.52;;;15.40;82.90;;;;;;4973609;28;20595;-86
2023/06/20 00:49:48;;;;;;;18.88;17.02;;;15.40;82.90;;;;;;4973236;28;20171;-86
2023/06/20 00:52:16;;;;;;;18.25;16.55;;;15.30;82.80;;;;;;4974847;28;20155;-85
2023/06/20 00:54:44;;;;;;;21.40;17.08;;;15.30;82.80;;;;;;4973482;28;20245;-86
2023/06/20 00:57:12;;;;;;;20.60;16.75;;;15.30;82.80;;;;;;4975041;28;20170;-86
2023/06/20 00:59:38;;;;;;;17.60;15.90;;;15.30;82.70;;;;;;4974678;28;20179;-86
2023/06/20 01:02:03;;;;;;;18.90;16.88;;;15.30;82.70;;;;;;4973495;28;20189;-86
2023/06/20 01:04:31;;;;;;;18.05;16.23;;;15.30;82.80;;;;;;4973148;28;20212;-85
2023/06/20 01:07:07;;;;;;;20.33;18.30;;;15.00;82.70;;;;;;4974611;28;20250;-86
2023/06/20 01:09:52;;;;;;;20.75;17.30;;;14.80;83.30;;;;;;4973508;28;20254;-86
2023/06/20 01:12:44;;;;;;;21.45;19.15;;;14.50;83.60;;;;;;4974821;28;20655;-85
2023/06/20 01:15:25;;;;;;;25.83;22.10;;;14.40;84.30;;;;;;4973300;28;20261;-86
2023/06/20 01:18:25;;;;;;;22.27;20.07;;;14.30;84.90;;;;;;4973260;28;20159;-86
2023/06/20 01:20:56;;;;;;;28.25;25.17;;;14.30;85.50;;;;;;4974580;28;20175;-86
2023/06/20 01:23:57;;;;;;;33.87;26.87;;;14.40;85.80;;;;;;4974363;28;20561;-85
2023/06/20 01:26:32;;;;;;;30.70;25.60;;;14.50;86.00;;;;;;4974427;28;20210;-86
2023/06/20 01:29:25;;;;;;;26.95;24.15;;;14.40;86.20;;;;;;4973116;28;20667;-86
2023/06/20 01:31:55;;;;;;;24.45;21.90;;;14.40;86.40;;;;;;4974418;28;20532;-86
2023/06/20 01:34:27;;;;;;;25.90;20.17;;;14.40;86.50;;;;;;4973313;28;20195;-86
2023/06/20 01:37:00;;;;;;;24.55;20.88;;;14.40;86.50;;;;;;4972981;28;20222;-86
2023/06/20 01:39:31;;;;;;;20.77;18.65;;;14.40;86.40;;;;;;4972957;28;20182;-85
2023/06/20 01:42:01;;;;;;;16.88;15.32;;;14.40;86.30;;;;;;4973045;28;20171;-86
2023/06/20 01:44:28;;;;;;;15.70;14.20;;;14.50;86.00;;;;;;4974388;28;20198;-85
2023/06/20 01:46:56;;;;;;;16.52;15.13;;;14.50;85.80;;;;;;4974408;28;20222;-86
2023/06/20 01:49:23;;;;;;;13.80;12.60;;;14.40;85.70;;;;;;4973199;28;20237;-86
2023/06/20 01:51:55;;;;;;;13.57;12.38;;;14.40;85.50;;;;;;4973040;28;20171;-86
2023/06/20 01:54:23;;;;;;;21.15;15.75;;;14.40;85.20;;;;;;4973069;28;20568;-86
2023/06/20 01:56:50;;;;;;;25.40;16.87;;;14.30;85.00;;;;;;4972945;28;20242;-85
2023/06/20 01:59:16;;;;;;;23.40;15.93;;;14.20;85.30;;;;;;4972892;28;20227;-86
2023/06/20 02:01:45;;;;;;;34.00;17.57;;;14.10;85.40;;;;;;4974043;28;20653;-85
2023/06/20 02:04:11;;;;;;;26.27;16.27;;;14.10;85.80;;;;;;4977655;28;20198;-85
2023/06/20 02:06:38;;;;;;;20.57;14.87;;;14.10;85.90;;;;;;4976861;28;20175;-86
2023/06/20 02:09:04;;;;;;;20.47;15.27;;;14.10;86.00;;;;;;4976447;28;20268;-86
2023/06/20 02:11:30;;;;;;;26.77;18.90;;;14.10;86.00;;;;;;4976547;28;20202;-86
2023/06/20 02:13:57;;;;;;;27.10;17.00;;;14.10;85.80;;;;;;4976327;28;20241;-85
2023/06/20 02:16:24;;;;;;;18.13;15.87;;;14.10;85.80;;;;;;4977670;28;20174;-86
2023/06/20 02:18:50;;;;;;;23.70;15.50;;;14.10;85.80;;;;;;4977539;28;20707;-86
2023/06/20 02:21:22;;;;;;;19.43;14.57;;;14.10;85.80;;;;;;4976217;28;20175;-86
2023/06/20 02:23:51;;;;;;;19.07;16.77;;;14.00;85.60;;;;;;4977281;28;20202;-86
2023/06/20 02:26:18;;;;;;;22.87;19.73;;;14.00;85.50;;;;;;4977449;28;20724;-86
2023/06/20 02:28:49;;;;;;;26.77;23.87;;;14.00;85.40;;;;;;4976223;28;20175;-86
2023/06/20 02:31:21;;;;;;;26.00;23.30;;;14.00;85.60;;;;;;4976161;28;20180;-86
2023/06/20 02:33:56;;;;;;;26.13;21.97;;;14.00;85.50;;;;;;4976030;28;20234;-86
2023/06/20 02:36:25;;;;;;;21.40;18.53;;;14.00;85.60;;;;;;4977137;28;20213;-86
2023/06/20 02:38:56;;;;;;;20.10;18.10;;;14.00;85.40;;;;;;4976046;28;20187;-86
2023/06/20 02:41:22;;;;;;;20.50;18.33;;;13.90;85.70;;;;;;4975911;28;20174;-86
2023/06/20 02:43:48;;;;;;;23.67;17.37;;;13.90;85.60;;;;;;4975791;28;20221;-85
2023/06/20 02:46:38;;;;;;;19.93;18.23;;;13.80;85.60;;;;;;4975836;28;20175;-86
2023/06/20 02:49:32;;;;;;;18.57;16.63;;;13.80;85.60;;;;;;4975842;28;20209;-87
2023/06/20 02:52:27;;;;;;;18.27;16.77;;;13.80;85.50;;;;;;4976937;28;20238;-87
2023/06/20 02:55:05;;;;;;;17.20;15.80;;;13.80;85.40;;;;;;4975713;28;20649;-86
2023/06/20 02:57:31;;;;;;;17.17;15.67;;;13.80;85.30;;;;;;4976803;28;20163;-86
2023/06/20 03:00:09;;;;;;;17.90;16.30;;;13.80;85.30;;;;;;4976714;28;20179;-85
2023/06/20 03:02:49;;;;;;;16.43;14.97;;;13.80;85.20;;;;;;4976029;28;20202;-85
2023/06/20 03:05:17;;;;;;;15.83;14.33;;;13.80;85.20;;;;;;4975602;28;20812;-86
2023/06/20 03:07:43;;;;;;;14.00;12.70;;;13.80;85.10;;;;;;4975517;28;20171;-86
2023/06/20 03:10:10;;;;;;;13.17;12.07;;;13.90;85.10;;;;;;4975448;28;20233;-86
2023/06/20 03:12:35;;;;;;;13.10;12.00;;;13.90;85.10;;;;;;4974983;28;20198;-86
2023/06/20 03:15:01;;;;;;;14.10;12.63;;;13.90;85.10;;;;;;4975192;28;20190;-86
2023/06/20 03:17:27;;;;;;;12.20;11.27;;;14.00;85.10;;;;;;4975267;28;20174;-86
2023/06/20 03:19:52;;;;;;;13.40;11.37;;;14.00;85.10;;;;;;4975213;28;20290;-86
2023/06/20 03:22:18;;;;;;;13.33;12.07;;;14.00;85.00;;;;;;4975078;28;20201;-86
2023/06/20 03:24:47;;;;;;;12.80;11.80;;;14.00;85.00;;;;;;4975131;28;20671;-86
2023/06/20 03:27:13;;;;;;;13.40;12.17;;;14.00;85.00;;;;;;4976319;28;20174;-86
2023/06/20 03:29:38;;;;;;;16.53;12.70;;;14.10;84.90;;;;;;4976268;28;20668;-86
2023/06/20 03:32:04;;;;;;;16.47;12.47;;;14.10;84.80;;;;;;4975051;28;20177;-86
2023/06/20 03:34:30;;;;;;;13.13;11.83;;;14.20;84.80;;;;;;4976136;28;20773;-86
2023/06/20 03:36:55;;;;;;;12.97;11.77;;;14.20;84.80;;;;;;4974897;28;20296;-86
2023/06/20 03:39:21;;;;;;;12.00;10.87;;;14.20;84.90;;;;;;4974967;28;20179;-85
2023/06/20 03:41:46;;;;;;;11.23;10.23;;;14.20;84.80;;;;;;4976134;28;20241;-86
2023/06/20 03:44:12;;;;;;;11.77;10.67;;;14.30;84.80;;;;;;4974659;28;20210;-86
2023/06/20 03:46:37;;;;;;;12.10;11.10;;;14.30;84.70;;;;;;4976016;28;20286;-86
2023/06/20 03:49:03;;;;;;;12.97;11.87;;;14.30;85.00;;;;;;4974718;28;20179;-86
2023/06/20 03:51:28;;;;;;;20.00;18.00;;;14.40;85.10;;;;;;4974736;28;20653;-88
2023/06/20 03:53:54;;;;;;;27.40;24.03;;;14.60;85.50;;;;;;4976008;28;20225;-86
2023/06/20 03:56:19;;;;;;;26.23;23.53;;;14.70;86.10;;;;;;4974544;28;20559;-86
2023/06/20 03:58:45;;;;;;;27.67;24.67;;;14.80;87.10;;;;;;4975968;28;20183;-86
2023/06/20 04:01:10;;;;;;;26.33;23.33;;;14.80;87.60;;;;;;4975745;28;20175;-88
2023/06/20 04:03:36;;;;;;;28.63;24.50;;;14.80;88.00;;;;;;4974385;28;20237;-88
2023/06/20 04:06:01;;;;;;;26.60;23.83;;;14.90;88.40;;;;;;4975732;28;20179;-87
2023/06/20 04:08:28;;;;;;;27.27;22.83;;;14.90;88.40;;;;;;4974819;28;20175;-88
2023/06/20 04:10:54;;;;;;;27.92;21.95;;;14.90;88.60;;;;;;4974308;28;20676;-88
2023/06/20 04:13:20;;;;;;;28.73;20.05;;;14.80;88.70;;;;;;4975382;28;20199;-88
2023/06/20 04:15:46;;;;;;;25.83;20.88;;;14.80;88.80;;;;;;4974344;28;20183;-87
2023/06/20 04:18:11;;;;;;;28.40;21.67;;;14.70;88.90;;;;;;4975417;28;20265;-88
2023/06/20 04:20:37;;;;;;;24.43;21.83;;;14.80;89.10;;;;;;4975314;28;20188;-87
2023/06/20 04:23:02;;;;;;;27.17;21.47;;;14.80;89.30;;;;;;4974024;28;20198;-87
2023/06/20 04:25:28;;;;;;;27.20;21.73;;;14.70;89.40;;;;;;4973317;28;20198;-88
2023/06/20 04:27:55;;;;;;;26.80;20.77;;;14.70;89.70;;;;;;4974099;28;20614;-87
2023/06/20 04:30:22;;;;;;;23.52;21.00;;;14.80;89.90;;;;;;4975147;28;20290;-88
2023/06/20 04:32:47;;;;;;;30.58;22.40;;;14.80;90.20;;;;;;4975158;28;20191;-87
2023/06/20 04:35:14;;;;;;;27.60;23.27;;;14.80;90.40;;;;;;4973854;28;20268;-88
2023/06/20 04:37:40;;;;;;;28.88;22.17;;;14.80;90.70;;;;;;4975354;28;20155;-87
2023/06/20 04:40:08;;;;;;;27.27;23.83;;;14.90;90.90;;;;;;4973889;28;20183;-88
2023/06/20 04:42:34;;;;;;;29.37;23.97;;;14.90;91.00;;;;;;4973980;28;20677;-88
2023/06/20 04:44:59;;;;;;;32.60;24.67;;;14.90;91.10;;;;;;4973645;28;20202;-88
2023/06/20 04:47:25;;;;;;;31.57;26.30;;;15.00;91.30;;;;;;4973712;28;20262;-88
2023/06/20 04:49:50;;;;;;;28.20;24.77;;;15.00;91.40;;;;;;4974873;28;20171;-88
2023/06/20 04:52:16;;;;;;;32.28;23.25;;;15.00;91.50;;;;;;4975038;28;20178;-87
2023/06/20 04:54:42;;;;;;;29.20;25.65;;;15.00;91.60;;;;;;4973573;28;20186;-88
2023/06/20 04:57:08;;;;;;;39.22;26.17;;;15.00;91.80;;;;;;4975058;28;20577;-88
2023/06/20 04:59:35;;;;;;;33.47;25.88;;;15.10;91.80;;;;;;4973465;28;20191;-88
2023/06/20 05:02:04;;;;;;;32.05;27.02;;;15.10;91.90;;;;;;4973507;28;20214;-88
2023/06/20 05:04:30;;;;;;;30.08;26.48;;;15.20;92.00;;;;;;4974761;28;20249;-88
2023/06/20 05:06:55;;;;;;;37.73;26.63;;;15.20;92.10;;;;;;4973508;28;20182;-88
2023/06/20 05:09:21;;;;;;;32.88;26.35;;;15.20;92.20;;;;;;4973401;28;20270;-88
2023/06/20 05:11:46;;;;;;;38.63;28.45;;;15.20;92.20;;;;;;4974984;28;20331;-89
2023/06/20 05:14:12;;;;;;;36.50;30.60;;;15.30;92.30;;;;;;4974934;28;20230;-88
2023/06/20 05:16:37;;;;;;;35.83;28.05;;;15.40;92.40;;;;;;4974966;28;20265;-89
2023/06/20 05:19:03;;;;;;;36.35;29.75;;;15.50;92.40;;;;;;4973530;28;20225;-87
2023/06/20 05:21:28;;;;;;;37.42;28.85;;;15.50;92.50;;;;;;4973641;28;20733;-88
2023/06/20 05:23:54;;;;;;;40.15;29.55;;;15.70;92.60;;;;;;4974691;28;20596;-87
2023/06/20 05:26:19;;;;;;;38.33;28.88;;;15.80;92.70;;;;;;4973504;28;20174;-87
2023/06/20 05:28:45;;;;;;;36.90;29.88;;;16.00;92.70;;;;;;4974691;28;20230;-88
2023/06/20 05:31:10;;;;;;;39.25;29.15;;;16.10;92.80;;;;;;4973220;28;20530;-87
2023/06/20 05:33:36;;;;;;;39.92;31.05;;;16.20;92.70;;;;;;4974454;28;20190;-88
2023/06/20 05:36:02;;;;;;;35.58;30.85;;;16.20;92.70;;;;;;4974281;28;20289;-88
2023/06/20 05:38:31;;;;;;;36.78;30.95;;;16.30;92.70;;;;;;4980867;28;20178;-88
2023/06/20 05:40:58;;;;;;;34.70;30.70;;;16.40;92.70;;;;;;4979617;28;20206;-88
2023/06/20 05:43:23;;;;;;;38.80;31.02;;;16.50;92.60;;;;;;4979653;28;20703;-88
2023/06/20 05:45:49;;;;;;;41.10;32.42;;;16.70;92.70;;;;;;4980959;28;20194;-88
2023/06/20 05:48:15;;;;;;;33.33;29.73;;;16.80;92.70;;;;;;4979646;28;20277;-88
2023/06/20 05:50:41;;;;;;;34.95;29.52;;;17.00;92.70;;;;;;4980548;28;20720;-88
2023/06/20 05:53:07;;;;;;;32.85;29.02;;;17.10;92.40;;;;;;4979673;28;20202;-88
2023/06/20 05:55:33;;;;;;;30.65;27.08;;;17.20;92.40;;;;;;4980866;28;20183;-88
2023/06/20 05:57:59;;;;;;;31.08;27.80;;;17.40;92.10;;;;;;4979502;28;20696;-87
2023/06/20 06:00:24;;;;;;;28.95;24.48;;;17.50;91.70;;;;;;4979727;28;20675;-88
2023/06/20 06:02:50;;;;;;;30.13;24.30;;;17.60;91.30;;;;;;4979647;28;20225;-88
2023/06/20 06:05:16;;;;;;;27.27;22.92;;;17.70;90.60;;;;;;4980706;28;20210;-88
2023/06/20 06:07:41;;;;;;;26.25;21.90;;;18.00;90.60;;;;;;4979448;28;20178;-87
2023/06/20 06:10:07;;;;;;;22.30;19.85;;;18.20;89.80;;;;;;4979370;28;20186;-86
2023/06/20 06:12:35;;;;;;;22.15;19.75;;;18.30;88.80;;;;;;4979335;28;20194;-87
2023/06/20 06:15:01;;;;;;;19.70;17.80;;;18.50;88.20;;;;;;4979314;28;20179;-87
2023/06/20 06:17:26;;;;;;;20.20;18.08;;;18.50;86.40;;;;;;4980522;28;20171;-88
2023/06/20 06:19:52;;;;;;;22.90;16.15;;;18.70;86.40;;;;;;4980559;28;20199;-87
2023/06/20 06:22:20;;;;;;;17.50;15.15;;;18.70;85.60;;;;;;4979330;28;20221;-87
2023/06/20 06:24:46;;;;;;;17.85;14.75;;;18.80;85.30;;;;;;4979207;28;20722;-87
2023/06/20 06:27:11;;;;;;;14.98;13.15;;;18.80;84.80;;;;;;4979142;28;20178;-87
2023/06/20 06:29:39;;;;;;;18.70;14.98;;;18.90;84.30;;;;;;4980359;28;20171;-87
2023/06/20 06:32:05;;;;;;;18.27;14.35;;;19.00;84.10;;;;;;4979222;28;20185;-88
2023/06/20 06:34:32;;;;;;;15.25;13.55;;;19.10;83.20;;;;;;4979164;28;20183;-87
2023/06/20 06:36:57;;;;;;;13.32;11.93;;;19.10;82.80;;;;;;4980254;28;20225;-87
2023/06/20 06:39:25;;;;;;;14.35;11.55;;;19.20;82.30;;;;;;4979092;28;20203;-87
2023/06/20 06:41:50;;;;;;;13.73;11.65;;;19.30;81.30;;;;;;4980584;28;20167;-87
2023/06/20 06:44:17;;;;;;;11.93;10.82;;;19.40;80.50;;;;;;4980024;28;20209;-87
2023/06/20 06:46:43;;;;;;;12.52;11.23;;;19.50;79.60;;;;;;4980308;28;20591;-87
2023/06/20 06:49:09;;;;;;;13.10;11.80;;;19.70;80.00;;;;;;4975792;28;20274;-87
2023/06/20 06:51:38;;;;;;;12.40;11.30;;;19.70;78.60;;;;;;4977339;28;20197;-87
2023/06/20 06:54:04;;;;;;;11.80;10.80;;;19.70;77.90;;;;;;4975927;28;20206;-87
2023/06/20 06:56:29;;;;;;;12.35;11.23;;;19.80;78.60;;;;;;4977159;28;20175;-87
2023/06/20 06:58:57;;;;;;;13.43;12.23;;;19.90;77.30;;;;;;4975883;28;20237;-87
2023/06/20 07:01:24;;;;;;;11.77;10.60;;;20.10;78.20;;;;;;4977078;28;20175;-87
2023/06/20 07:03:49;;;;;;;14.63;12.02;;;20.30;77.80;;;;;;4976973;28;20270;-88
2023/06/20 07:06:15;;;;;;;12.07;11.07;;;20.30;76.30;;;;;;4977280;28;20611;-87
2023/06/20 07:08:40;;;;;;;11.60;10.57;;;20.50;76.30;;;;;;4975759;28;20179;-88
2023/06/20 07:11:06;;;;;;;12.18;9.82;;;20.50;72.80;;;;;;4975828;28;20170;-88
2023/06/20 07:13:31;;;;;;;11.50;10.60;;;20.70;71.50;;;;;;4975692;28;20296;-88
2023/06/20 07:15:57;;;;;;;12.15;11.30;;;20.80;71.20;;;;;;4976340;28;20178;-88
2023/06/20 07:18:22;;;;;;;13.07;11.75;;;20.90;71.00;;;;;;4975469;28;20186;-87
2023/06/20 07:20:48;;;;;;;14.70;13.63;;;21.10;70.70;;;;;;4976648;28;20179;-88
2023/06/20 07:23:13;;;;;;;15.60;13.88;;;21.20;69.00;;;;;;4975287;28;20665;-87
2023/06/20 07:25:39;;;;;;;14.75;13.65;;;21.20;68.50;;;;;;4976311;28;20285;-87
2023/06/20 07:28:06;;;;;;;14.43;13.32;;;21.40;67.00;;;;;;4975127;28;20282;-87
2023/06/20 07:30:32;;;;;;;15.13;14.00;;;21.60;66.60;;;;;;4975114;28;20182;-87
2023/06/20 07:32:57;;;;;;;14.25;13.10;;;21.70;68.00;;;;;;4976255;28;20558;-87
2023/06/20 07:35:23;;;;;;;14.95;13.65;;;21.80;66.70;;;;;;4975397;28;20201;-87
2023/06/20 07:37:49;;;;;;;14.73;13.43;;;21.90;66.10;;;;;;4975052;28;20269;-88
2023/06/20 07:40:15;;;;;;;14.25;13.15;;;22.00;64.70;;;;;;4976167;28;20346;-87
2023/06/20 07:42:40;;;;;;;14.20;13.07;;;22.00;62.60;;;;;;4974769;28;20756;-87
2023/06/20 07:45:06;;;;;;;13.98;12.85;;;22.10;64.20;;;;;;4976195;28;20212;-87
2023/06/20 07:47:32;;;;;;;14.75;13.20;;;22.10;64.00;;;;;;4974851;28;20182;-87
2023/06/20 07:49:57;;;;;;;14.20;12.98;;;22.30;65.50;;;;;;4974843;28;20178;-87
2023/06/20 07:52:23;;;;;;;16.70;15.10;;;22.50;64.20;;;;;;4975999;28;20218;-87
2023/06/20 07:54:48;;;;;;;15.82;14.63;;;22.50;62.50;;;;;;4974699;28;20182;-87
2023/06/20 07:57:14;;;;;;;14.98;13.77;;;22.70;63.00;;;;;;4975886;28;20225;-87
2023/06/20 07:59:39;;;;;;;16.30;14.93;;;22.70;62.70;;;;;;4973533;28;20186;-87
2023/06/20 08:02:05;;;;;;;15.55;14.32;;;22.80;63.20;;;;;;4975282;28;20186;-87
2023/06/20 08:04:31;;;;;;;17.67;16.17;;;22.90;63.00;;;;;;4975750;28;20205;-87
2023/06/20 08:06:56;;;;;;;17.67;16.33;;;22.90;61.60;;;;;;4974644;28;20265;-87
2023/06/20 08:09:22;;;;;;;18.10;16.80;;;23.00;60.70;;;;;;4974490;28;20170;-87
2023/06/20 08:11:47;;;;;;;18.20;16.85;;;23.20;60.40;;;;;;4975577;28;20170;-87
2023/06/20 08:14:13;;;;;;;18.20;16.67;;;23.20;60.90;;;;;;4975444;28;20213;-87
2023/06/20 08:16:38;;;;;;;18.98;17.58;;;23.30;61.10;;;;;;4974400;28;20223;-88
2023/06/20 08:19:04;;;;;;;18.23;16.92;;;23.40;61.10;;;;;;4974240;28;20182;-87
2023/06/20 08:21:30;;;;;;;19.45;17.73;;;23.50;60.50;;;;;;4974219;28;20190;-87
2023/06/20 08:23:55;;;;;;;18.88;17.40;;;23.60;59.70;;;;;;4975155;28;20195;-87
2023/06/20 08:26:21;;;;;;;18.17;16.80;;;23.60;60.20;;;;;;4974061;28;20182;-87
2023/06/20 08:28:46;;;;;;;18.75;17.30;;;23.60;60.80;;;;;;4974421;28;20214;-88
2023/06/20 08:31:12;;;;;;;18.60;17.00;;;23.50;60.60;;;;;;4974041;28;20262;-88
2023/06/20 08:33:37;;;;;;;18.88;17.45;;;23.60;61.10;;;;;;4975528;28;20559;-87
2023/06/20 08:36:04;;;;;;;19.58;17.60;;;23.60;60.50;;;;;;4973751;28;20194;-87
2023/06/20 08:38:29;;;;;;;18.83;17.33;;;23.60;60.20;;;;;;4975485;28;20186;-88
2023/06/20 08:40:55;;;;;;;19.50;18.00;;;23.60;60.40;;;;;;4973925;28;20570;-88
2023/06/20 08:43:21;;;;;;;19.52;17.55;;;23.70;60.40;;;;;;4973863;28;20572;-88
2023/06/20 08:45:46;;;;;;;18.73;17.33;;;23.80;59.90;;;;;;4973741;28;20213;-88
2023/06/20 08:48:12;;;;;;;18.08;16.73;;;23.90;59.50;;;;;;4975248;28;20181;-88
2023/06/20 08:50:38;;;;;;;17.63;16.33;;;24.10;59.50;;;;;;4975003;28;20243;-88
2023/06/20 08:53:09;;;;;;;18.85;17.17;;;24.10;58.60;;;;;;4974518;28;20198;-88
2023/06/20 08:55:35;;;;;;;17.80;16.38;;;24.20;58.00;;;;;;4973704;28;20171;-88
2023/06/20 08:58:00;;;;;;;17.17;15.95;;;24.40;59.10;;;;;;4973540;28;20175;-88
2023/06/20 09:00:27;;;;;;;17.63;16.40;;;24.50;57.20;;;;;;4973518;28;20549;-88
2023/06/20 09:02:54;;;;;;;18.40;16.98;;;24.70;57.00;;;;;;4973463;28;20216;-87
2023/06/20 09:05:20;;;;;;;17.70;16.40;;;24.70;56.80;;;;;;4973449;28;20202;-88
2023/06/20 09:07:46;;;;;;;18.00;16.70;;;24.70;56.90;;;;;;4973530;28;20186;-88
2023/06/20 09:10:14;;;;;;;17.83;16.42;;;25.00;57.50;;;;;;4974698;28;20182;-88
2023/06/20 09:12:47;;;;;;;17.42;16.13;;;25.20;55.90;;;;;;4973041;28;20669;-88
2023/06/20 09:15:18;;;;;;;18.27;16.88;;;25.30;56.60;;;;;;4974649;28;20183;-87
2023/06/20 09:17:44;;;;;;;17.80;16.30;;;25.50;55.00;;;;;;4973414;28;20175;-87
2023/06/20 09:20:12;;;;;;;17.40;16.10;;;25.30;53.20;;;;;;4974187;28;20185;-87
2023/06/20 09:22:39;;;;;;;18.10;16.80;;;25.20;54.90;;;;;;4973275;28;20202;-88
2023/06/20 09:25:05;;;;;;;18.10;16.80;;;25.10;54.50;;;;;;4973249;28;20299;-87
2023/06/20 09:27:38;;;;;;;17.83;16.33;;;25.30;56.60;;;;;;4974425;28;20210;-88
2023/06/20 09:30:04;;;;;;;19.20;17.48;;;25.60;55.20;;;;;;4973281;28;20167;-87
2023/06/20 09:32:34;;;;;;;18.15;16.85;;;25.70;55.00;;;;;;4973068;28;20203;-87
2023/06/20 09:35:03;;;;;;;18.85;17.13;;;25.80;55.00;;;;;;4972963;28;20653;-87
2023/06/20 09:37:41;;;;;;;18.88;17.35;;;25.80;54.30;;;;;;4973235;28;20213;-87
2023/06/20 09:40:22;;;;;;;19.05;17.48;;;25.80;54.30;;;;;;4973215;28;20671;-87
2023/06/20 09:42:48;;;;;;;18.10;16.80;;;25.90;54.60;;;;;;4973049;28;20229;-87
2023/06/20 09:45:16;;;;;;;18.65;17.33;;;26.00;54.60;;;;;;4974219;28;20571;-87
2023/06/20 09:47:43;;;;;;;18.80;17.38;;;26.10;54.70;;;;;;4972961;28;20229;-87
2023/06/20 09:50:16;;;;;;;19.67;18.00;;;26.20;54.20;;;;;;4973079;28;20198;-87
2023/06/20 09:53:00;;;;;;;19.50;17.75;;;26.40;54.90;;;;;;4973019;28;20206;-87
2023/06/20 09:55:26;;;;;;;19.65;17.58;;;26.60;54.00;;;;;;4974143;28;20170;-87
2023/06/20 09:57:58;;;;;;;18.77;17.38;;;26.60;54.70;;;;;;4972956;28;20186;-87
2023/06/20 10:00:26;;;;;;;18.52;17.23;;;26.60;53.90;;;;;;4974175;28;20262;-87
2023/06/20 10:02:53;;;;;;;18.15;16.85;;;26.70;53.70;;;;;;4973724;28;20203;-87
2023/06/20 10:05:20;;;;;;;19.17;17.35;;;26.80;52.80;;;;;;4972796;28;20213;-87
2023/06/20 10:07:48;;;;;;;21.83;18.13;;;26.80;53.80;;;;;;4973003;28;20174;-87
2023/06/20 10:10:15;;;;;;;17.45;16.25;;;26.80;52.60;;;;;;4974452;28;20173;-88
2023/06/20 10:12:44;;;;;;;18.38;16.83;;;26.80;51.80;;;;;;4972935;28;20199;-88
2023/06/20 10:15:11;;;;;;;18.83;17.23;;;27.10;54.10;;;;;;4972919;28;20233;-88
2023/06/20 10:17:41;;;;;;;18.33;16.88;;;27.20;52.70;;;;;;4972836;28;20182;-88
2023/06/20 10:20:22;;;;;;;19.40;17.75;;;27.30;50.90;;;;;;4974060;28;20606;-88
2023/06/20 10:22:49;;;;;;;19.27;17.75;;;27.30;51.00;;;;;;4972922;28;20198;-88
2023/06/20 10:25:17;;;;;;;18.95;16.98;;;27.50;52.70;;;;;;4976699;28;20252;-87
2023/06/20 10:27:53;;;;;;;18.17;16.88;;;27.40;51.30;;;;;;4976388;28;20187;-87
2023/06/20 10:30:53;;;;;;;18.35;16.95;;;27.30;52.90;;;;;;4976670;28;20173;-88
2023/06/20 10:33:32;;;;;;;17.65;16.35;;;27.10;53.60;;;;;;4977009;28;20275;-87
2023/06/20 10:36:06;;;;;;;19.13;17.27;;;26.90;55.60;;;;;;4977460;28;20194;-87
2023/06/20 10:38:34;;;;;;;17.92;16.73;;;26.90;54.10;;;;;;4977397;28;20226;-88
2023/06/20 10:41:12;;;;;;;21.00;17.48;;;27.00;53.20;;;;;;4976506;28;20278;-88
2023/06/20 10:43:51;;;;;;;19.05;17.27;;;27.00;52.60;;;;;;4976067;28;20209;-87
2023/06/20 10:46:18;;;;;;;17.15;15.85;;;27.00;53.70;;;;;;4976630;28;20182;-88
2023/06/20 10:48:44;;;;;;;18.20;16.73;;;27.10;55.00;;;;;;4977168;28;20201;-88
2023/06/20 10:51:10;;;;;;;18.27;16.95;;;27.10;52.60;;;;;;4976023;28;20177;-87
2023/06/20 10:53:36;;;;;;;18.75;17.10;;;27.10;54.10;;;;;;4977314;28;20195;-88
2023/06/20 10:56:01;;;;;;;18.60;17.08;;;27.10;53.30;;;;;;4976074;28;20270;-88
2023/06/20 10:58:27;;;;;;;19.17;17.48;;;26.90;54.40;;;;;;4977102;28;20645;-88
2023/06/20 11:00:53;;;;;;;18.98;17.20;;;26.70;55.30;;;;;;4976291;28;20178;-88
2023/06/20 11:03:21;;;;;;;19.23;17.30;;;26.30;57.30;;;;;;4977030;28;20194;-88
2023/06/20 11:05:51;;;;;;;18.77;17.38;;;26.20;57.90;;;;;;4975740;28;20202;-88
2023/06/20 11:08:25;;;;;;;20.30;18.48;;;26.20;58.40;;;;;;4975863;28;20171;-88
2023/06/20 11:10:51;;;;;;;19.92;18.02;;;26.20;57.90;;;;;;4975641;28;20179;-87
2023/06/20 11:13:16;;;;;;;18.92;17.42;;;26.10;58.90;;;;;;4976688;28;20235;-87
2023/06/20 11:15:42;;;;;;;19.83;17.98;;;26.00;59.30;;;;;;4975485;28;20187;-88
2023/06/20 11:18:09;;;;;;;20.70;17.92;;;26.10;59.20;;;;;;4975417;28;20269;-87
2023/06/20 11:20:39;;;;;;;18.77;17.17;;;26.10;58.80;;;;;;4975445;28;20218;-87
2023/06/20 11:23:06;;;;;;;18.77;17.38;;;26.30;57.70;;;;;;4976502;28;20715;-87
2023/06/20 11:25:34;;;;;;;19.15;17.42;;;26.40;57.30;;;;;;4976682;28;20253;-87
2023/06/20 11:28:07;;;;;;;19.02;17.38;;;26.20;58.70;;;;;;4975225;28;20175;-87
2023/06/20 11:30:38;;;;;;;18.88;17.27;;;26.50;58.70;;;;;;4976435;28;20210;-87
2023/06/20 11:33:16;;;;;;;18.55;17.15;;;26.70;57.80;;;;;;4975192;28;20190;-87
2023/06/20 11:35:53;;;;;;;18.08;16.63;;;26.50;58.10;;;;;;4974807;28;20676;-87
2023/06/20 11:38:20;;;;;;;18.98;17.42;;;26.40;57.70;;;;;;4976359;28;20222;-87
2023/06/20 11:40:50;;;;;;;24.48;17.58;;;26.10;59.20;;;;;;4976418;28;20186;-87
2023/06/20 11:43:25;;;;;;;18.55;17.15;;;25.90;58.10;;;;;;4975023;28;20289;-87
2023/06/20 11:45:50;;;;;;;18.02;16.42;;;25.90;59.30;;;;;;4976154;28;20206;-87
2023/06/20 11:48:16;;;;;;;19.00;17.23;;;25.90;59.20;;;;;;4975028;28;20248;-87
2023/06/20 11:50:44;;;;;;;18.42;16.90;;;25.80;59.00;;;;;;4976141;28;20167;-87
2023/06/20 11:53:25;;;;;;;19.60;17.70;;;25.90;58.50;;;;;;4974833;28;20202;-87
2023/06/20 11:55:53;;;;;;;19.20;17.60;;;26.00;58.50;;;;;;4974779;28;20261;-88
2023/06/20 11:58:18;;;;;;;19.23;17.42;;;25.80;58.70;;;;;;4974720;28;20273;-87
2023/06/20 12:00:47;;;;;;;22.52;17.73;;;25.70;59.20;;;;;;4975802;28;20665;-87
2023/06/20 12:03:17;;;;;;;18.90;17.30;;;26.00;59.10;;;;;;4975712;28;20201;-87
2023/06/20 12:05:43;;;;;;;18.33;16.85;;;26.10;58.70;;;;;;4974580;28;20282;-87
2023/06/20 12:08:09;;;;;;;18.48;16.98;;;26.10;59.10;;;;;;4974488;28;20179;-87
2023/06/20 12:10:39;;;;;;;18.63;17.02;;;26.00;58.60;;;;;;4974399;28;20237;-87
2023/06/20 12:13:04;;;;;;;18.67;17.00;;;25.90;59.20;;;;;;4974442;28;20194;-87
2023/06/20 12:15:30;;;;;;;19.45;17.73;;;26.10;59.30;;;;;;4974429;28;20636;-87
2023/06/20 12:17:56;;;;;;;19.05;17.33;;;26.20;59.00;;;;;;4974282;28;20191;-87
2023/06/20 12:20:22;;;;;;;19.20;17.60;;;26.30;59.00;;;;;;4974221;28;20179;-87
2023/06/20 12:22:48;;;;;;;18.75;17.25;;;26.50;60.10;;;;;;4974206;28;20220;-87
2023/06/20 12:25:14;;;;;;;17.58;16.38;;;26.50;57.80;;;;;;4975310;28;20669;-87
2023/06/20 12:27:39;;;;;;;19.48;17.63;;;26.60;57.50;;;;;;4974028;28;20281;-87
2023/06/20 12:30:06;;;;;;;18.42;16.67;;;26.70;56.90;;;;;;4975327;28;20187;-87
2023/06/20 12:32:32;;;;;;;18.52;16.90;;;26.70;57.10;;;;;;4975190;28;20217;-87